Time;durP1;ratioP1;P1;durP2;ratioP2;P2;SDS_P1;SDS_P2;PMS_P1;PMS_P2;Temp;Humidity;BMP_temperature;BMP_pressure;BME280_temperature;BME280_humidity;BME280_pressure;Samples;Min_cycle;Max_cycle;Signal;HPM_P1;HPM_P2
2022/09/29 00:00:27;;;;;;;1.55;1.45;;;19.20;56.30;;;;;;5092579;28;20221;-37
2022/09/29 00:02:58;;;;;;;1.40;1.30;;;19.20;56.40;;;;;;5092978;28;20586;-35
2022/09/29 00:05:29;;;;;;;1.60;1.50;;;19.20;56.30;;;;;;5092368;28;20197;-35
2022/09/29 00:08:00;;;;;;;1.65;1.50;;;19.20;56.30;;;;;;5092503;28;20281;-36
2022/09/29 00:10:31;;;;;;;1.40;1.30;;;19.20;56.20;;;;;;5092616;28;20715;-40
2022/09/29 00:13:01;;;;;;;1.30;1.20;;;19.30;56.30;;;;;;5092506;28;20621;-36
2022/09/29 00:15:34;;;;;;;1.58;1.48;;;19.30;56.30;;;;;;5079280;28;20190;-36
2022/09/29 00:18:05;;;;;;;1.50;1.40;;;19.20;56.20;;;;;;5092173;28;20229;-43
2022/09/29 00:20:36;;;;;;;1.75;1.50;;;19.30;56.20;;;;;;5089958;28;20206;-37
2022/09/29 00:23:07;;;;;;;1.30;1.20;;;19.30;56.20;;;;;;5071807;28;20202;-36
2022/09/29 00:25:38;;;;;;;3.10;1.42;;;19.30;56.10;;;;;;5077355;28;20193;-37
2022/09/29 00:28:09;;;;;;;1.48;1.38;;;19.30;56.20;;;;;;5092885;28;20194;-36
2022/09/29 00:30:41;;;;;;;2.67;2.15;;;19.30;56.20;;;;;;5092698;28;20228;-36
2022/09/29 00:33:12;;;;;;;11.52;5.68;;;19.30;56.30;;;;;;5078829;28;20198;-36
2022/09/29 00:35:43;;;;;;;18.45;6.43;;;19.40;56.60;;;;;;5077456;28;20193;-36
2022/09/29 00:38:13;;;;;;;15.60;6.80;;;19.40;56.70;;;;;;5092357;28;20229;-37
2022/09/29 00:40:44;;;;;;;18.85;7.63;;;19.40;56.90;;;;;;5082183;28;20591;-36
2022/09/29 00:43:23;;;;;;;20.33;8.07;;;19.50;57.00;;;;;;5072058;28;20194;-36
2022/09/29 00:45:57;;;;;;;16.15;7.32;;;19.50;57.10;;;;;;5078227;28;20318;-36
2022/09/29 00:48:33;;;;;;;13.60;5.65;;;19.50;57.10;;;;;;5092460;28;20202;-36
2022/09/29 00:51:04;;;;;;;16.10;6.57;;;19.50;57.10;;;;;;5090661;28;20210;-36
2022/09/29 00:53:35;;;;;;;12.25;6.38;;;19.50;57.00;;;;;;5073587;28;20191;-36
2022/09/29 00:56:09;;;;;;;13.27;5.95;;;19.50;56.90;;;;;;5079816;28;20197;-36
2022/09/29 00:58:44;;;;;;;13.43;6.55;;;19.50;56.90;;;;;;5091960;28;20233;-38
2022/09/29 01:01:17;;;;;;;15.82;6.75;;;19.60;56.90;;;;;;5092109;28;20216;-36
2022/09/29 01:03:50;;;;;;;15.60;6.32;;;19.60;56.90;;;;;;5092013;28;20480;-35
2022/09/29 01:06:23;;;;;;;12.98;6.78;;;19.60;56.80;;;;;;5091610;28;20285;-43
2022/09/29 01:09:00;;;;;;;11.77;5.90;;;19.60;56.80;;;;;;5090641;28;20198;-40
2022/09/29 01:11:31;;;;;;;12.30;6.40;;;19.60;56.70;;;;;;5090473;28;20246;-37
2022/09/29 01:14:04;;;;;;;14.05;6.00;;;19.70;56.70;;;;;;5085630;28;20199;-37
2022/09/29 01:16:40;;;;;;;12.57;5.72;;;19.70;56.70;;;;;;5082497;28;20194;-36
2022/09/29 01:19:14;;;;;;;9.98;5.80;;;19.70;56.70;;;;;;5078947;28;20261;-36
2022/09/29 01:22:00;;;;;;;13.68;6.00;;;19.70;56.70;;;;;;5083328;28;20210;-41
2022/09/29 01:24:58;;;;;;;12.63;5.80;;;19.70;56.70;;;;;;5091795;28;20194;-37
2022/09/29 01:27:47;;;;;;;12.15;5.70;;;19.70;56.70;;;;;;5091671;28;20198;-37
2022/09/29 01:30:53;;;;;;;11.15;5.63;;;19.70;56.60;;;;;;5091016;28;20205;-37
2022/09/29 01:33:35;;;;;;;14.57;5.80;;;19.70;56.60;;;;;;5091752;28;20209;-40
2022/09/29 01:36:11;;;;;;;14.18;5.53;;;19.80;56.60;;;;;;5090900;28;20193;-37
2022/09/29 01:39:04;;;;;;;12.57;6.38;;;19.80;56.60;;;;;;5091504;28;20225;-38
2022/09/29 01:41:42;;;;;;;12.02;5.25;;;19.80;56.50;;;;;;5099329;28;20286;-36
2022/09/29 01:44:20;;;;;;;11.00;5.57;;;19.80;56.50;;;;;;5097686;28;20210;-36
2022/09/29 01:46:57;;;;;;;7.75;4.80;;;19.80;56.50;;;;;;5082278;28;20193;-37
2022/09/29 01:49:31;;;;;;;11.10;5.60;;;19.80;56.50;;;;;;5090849;28;20212;-36
2022/09/29 01:52:04;;;;;;;11.25;5.38;;;19.90;56.50;;;;;;5090914;28;20205;-37
2022/09/29 01:54:40;;;;;;;9.70;5.32;;;19.90;56.50;;;;;;5091841;28;20657;-36
2022/09/29 01:57:17;;;;;;;11.10;5.20;;;19.90;56.50;;;;;;5090757;28;20208;-36
2022/09/29 01:59:51;;;;;;;10.55;5.15;;;19.90;56.50;;;;;;5091046;28;20204;-40
2022/09/29 02:02:29;;;;;;;9.00;4.63;;;19.90;56.50;;;;;;5090779;28;20210;-36
2022/09/29 02:05:04;;;;;;;8.43;4.53;;;19.90;56.50;;;;;;5090302;28;20194;-36
2022/09/29 02:07:38;;;;;;;10.13;5.25;;;20.00;56.50;;;;;;5090842;28;20204;-36
2022/09/29 02:10:15;;;;;;;5.97;2.70;;;20.00;56.40;;;;;;5090692;28;20672;-45
2022/09/29 02:12:47;;;;;;;2.72;1.70;;;20.00;56.30;;;;;;5091171;28;20673;-52
2022/09/29 02:15:22;;;;;;;4.20;1.17;;;20.00;56.10;;;;;;5074853;28;20207;-57
2022/09/29 02:17:56;;;;;;;2.35;1.00;;;20.10;55.90;;;;;;5089746;28;20304;-55
2022/09/29 02:20:27;;;;;;;2.88;0.80;;;20.10;55.70;;;;;;5082130;28;20191;-36
2022/09/29 02:22:58;;;;;;;1.85;1.00;;;20.20;55.80;;;;;;5093015;28;20243;-38
2022/09/29 02:25:29;;;;;;;1.98;1.10;;;20.30;55.70;;;;;;5095123;28;20654;-38
2022/09/29 02:28:00;;;;;;;3.10;1.30;;;20.30;55.70;;;;;;5094679;28;20210;-36
2022/09/29 02:30:30;;;;;;;2.50;1.05;;;20.30;55.70;;;;;;5094977;28;20205;-38
2022/09/29 02:33:03;;;;;;;3.03;0.95;;;20.40;55.70;;;;;;5094489;28;20277;-36
2022/09/29 02:35:56;;;;;;;1.77;1.20;;;20.40;55.70;;;;;;5094384;28;20570;-36
2022/09/29 02:38:37;;;;;;;2.45;0.90;;;20.40;55.60;;;;;;5093746;28;20689;-37
2022/09/29 02:41:17;;;;;;;3.20;1.23;;;20.50;55.60;;;;;;5094039;28;20287;-36
2022/09/29 02:44:18;;;;;;;2.22;1.20;;;20.50;55.60;;;;;;5089528;28;20494;-36
2022/09/29 02:47:04;;;;;;;2.25;1.25;;;20.50;55.60;;;;;;5071632;28;20248;-36
2022/09/29 02:49:49;;;;;;;3.22;1.50;;;20.50;55.50;;;;;;5071504;28;20206;-36
2022/09/29 02:52:30;;;;;;;2.33;1.38;;;20.60;55.50;;;;;;5073462;28;20203;-36
2022/09/29 02:55:07;;;;;;;2.08;1.10;;;20.60;55.50;;;;;;5071806;28;20198;-36
2022/09/29 02:57:47;;;;;;;1.77;1.27;;;20.60;55.50;;;;;;5072542;28;20205;-36
2022/09/29 03:00:19;;;;;;;3.05;1.27;;;20.60;55.50;;;;;;5073169;28;20650;-36
2022/09/29 03:02:50;;;;;;;2.75;1.60;;;20.60;55.50;;;;;;5072551;28;20505;-36
2022/09/29 03:05:24;;;;;;;2.13;1.02;;;20.70;55.60;;;;;;5072935;28;20203;-36
2022/09/29 03:07:55;;;;;;;2.90;1.38;;;20.70;55.60;;;;;;5073073;28;20202;-36
2022/09/29 03:10:26;;;;;;;1.65;1.20;;;20.70;55.60;;;;;;5072967;28;20206;-37
2022/09/29 03:12:56;;;;;;;2.15;1.27;;;20.70;55.60;;;;;;5072772;28;20559;-38
2022/09/29 03:15:27;;;;;;;1.52;1.20;;;20.70;55.60;;;;;;5072456;28;20677;-36
2022/09/29 03:17:58;;;;;;;1.60;1.10;;;20.70;55.50;;;;;;5072604;28;20222;-36
2022/09/29 03:20:31;;;;;;;1.38;1.27;;;20.70;55.60;;;;;;5072659;28;20194;-37
2022/09/29 03:23:02;;;;;;;2.45;1.48;;;20.70;55.50;;;;;;5072573;28;20237;-37
2022/09/29 03:25:33;;;;;;;1.55;1.02;;;20.70;55.60;;;;;;5072005;28;20560;-37
2022/09/29 03:28:04;;;;;;;1.42;1.00;;;20.80;55.60;;;;;;5072560;28;20206;-37
2022/09/29 03:30:35;;;;;;;3.22;1.35;;;20.80;55.60;;;;;;5071669;28;20729;-44
2022/09/29 03:33:05;;;;;;;1.85;1.27;;;20.80;55.60;;;;;;5072476;28;20199;-36
2022/09/29 03:35:38;;;;;;;1.88;1.10;;;20.80;55.60;;;;;;5072668;28;20682;-36
2022/09/29 03:38:09;;;;;;;1.60;1.10;;;20.80;55.60;;;;;;5072253;28;20217;-36
2022/09/29 03:40:39;;;;;;;1.90;1.20;;;20.80;55.70;;;;;;5071611;28;20214;-36
2022/09/29 03:43:10;;;;;;;2.10;1.20;;;20.80;55.60;;;;;;5071942;28;20187;-38
2022/09/29 03:45:48;;;;;;;1.60;1.02;;;20.90;55.70;;;;;;5074267;28;20201;-37
2022/09/29 03:48:20;;;;;;;2.15;1.35;;;20.90;55.70;;;;;;5073654;28;20194;-40
2022/09/29 03:50:54;;;;;;;2.22;1.27;;;20.90;55.70;;;;;;5082994;28;20221;-37
2022/09/29 03:53:24;;;;;;;1.80;1.10;;;20.90;55.70;;;;;;5092743;28;20216;-42
2022/09/29 03:55:55;;;;;;;1.75;1.13;;;20.90;55.80;;;;;;5103431;28;20279;-36
2022/09/29 03:58:26;;;;;;;1.13;1.02;;;20.90;55.80;;;;;;5101057;28;20233;-37
2022/09/29 04:00:56;;;;;;;1.73;1.30;;;20.90;55.80;;;;;;5072583;28;20218;-37
2022/09/29 04:03:27;;;;;;;2.35;1.23;;;20.90;55.80;;;;;;5082361;28;20190;-39
2022/09/29 04:06:00;;;;;;;2.05;1.50;;;20.90;55.90;;;;;;5091846;28;20650;-49
2022/09/29 04:08:30;;;;;;;3.45;1.63;;;20.90;55.80;;;;;;5091719;28;20195;-37
2022/09/29 04:11:01;;;;;;;2.15;1.50;;;20.90;55.80;;;;;;5080610;28;20217;-36
2022/09/29 04:13:32;;;;;;;3.83;1.83;;;20.90;55.90;;;;;;5090708;28;20194;-36
2022/09/29 04:16:04;;;;;;;2.33;1.50;;;20.90;55.90;;;;;;5092582;28;20186;-36
2022/09/29 04:18:35;;;;;;;2.90;1.42;;;20.90;55.90;;;;;;5091978;28;20255;-44
2022/09/29 04:21:11;;;;;;;3.13;1.48;;;20.90;55.80;;;;;;5091297;28;20214;-37
2022/09/29 04:23:41;;;;;;;2.08;1.50;;;20.90;55.80;;;;;;5091654;28;20876;-36
2022/09/29 04:26:12;;;;;;;1.83;1.27;;;20.90;55.80;;;;;;5091774;28;20201;-36
2022/09/29 04:28:43;;;;;;;2.75;1.52;;;20.90;55.80;;;;;;5080137;28;20182;-39
2022/09/29 04:31:14;;;;;;;2.38;1.45;;;20.90;55.80;;;;;;5090459;28;20225;-36
2022/09/29 04:33:44;;;;;;;2.05;1.60;;;20.90;55.90;;;;;;5091112;28;20194;-37
2022/09/29 04:36:17;;;;;;;2.97;1.60;;;20.90;55.80;;;;;;5091213;28;20198;-36
2022/09/29 04:38:49;;;;;;;1.75;1.40;;;20.80;55.80;;;;;;5091048;28;20762;-36
2022/09/29 04:41:19;;;;;;;2.67;1.60;;;20.80;55.80;;;;;;5087100;28;20211;-36
2022/09/29 04:43:50;;;;;;;1.98;1.52;;;20.80;55.80;;;;;;5086454;28;20217;-38
2022/09/29 04:46:21;;;;;;;2.17;1.42;;;20.80;55.80;;;;;;5084573;28;20198;-37
2022/09/29 04:48:51;;;;;;;1.98;1.50;;;20.80;55.80;;;;;;5090676;28;20567;-36
2022/09/29 04:51:24;;;;;;;3.83;1.63;;;20.80;55.70;;;;;;5090504;28;20222;-36
2022/09/29 04:53:55;;;;;;;2.38;1.85;;;20.80;55.70;;;;;;5091760;28;20194;-36
2022/09/29 04:56:30;;;;;;;2.40;1.60;;;20.80;55.70;;;;;;5089779;28;20198;-39
2022/09/29 04:59:01;;;;;;;2.88;1.63;;;20.80;55.70;;;;;;5087607;28;20221;-39
2022/09/29 05:01:31;;;;;;;3.08;1.70;;;20.80;55.70;;;;;;5090760;28;20206;-39
2022/09/29 05:04:02;;;;;;;3.05;1.92;;;20.80;55.70;;;;;;5090989;28;20697;-37
2022/09/29 05:06:38;;;;;;;2.80;1.55;;;20.70;55.60;;;;;;5091052;28;20670;-36
2022/09/29 05:09:09;;;;;;;2.50;1.60;;;20.70;55.60;;;;;;5090197;28;20225;-40
2022/09/29 05:11:41;;;;;;;3.30;1.80;;;20.70;55.60;;;;;;5091430;28;20210;-37
2022/09/29 05:14:13;;;;;;;1.85;1.55;;;20.70;56.20;;;;;;5090565;28;20186;-37
2022/09/29 05:16:44;;;;;;;2.08;1.70;;;20.70;55.60;;;;;;5091446;28;20205;-36
2022/09/29 05:19:14;;;;;;;2.00;1.45;;;20.70;55.70;;;;;;5091439;28;20222;-37
2022/09/29 05:21:47;;;;;;;2.72;1.73;;;20.70;55.60;;;;;;5090080;28;20761;-36
2022/09/29 05:24:18;;;;;;;2.50;1.80;;;20.70;55.60;;;;;;5090033;28;20190;-39
2022/09/29 05:26:49;;;;;;;2.20;1.77;;;20.70;55.70;;;;;;5090437;28;20201;-39
2022/09/29 05:29:20;;;;;;;1.60;1.50;;;20.70;55.60;;;;;;5089379;28;20202;-48
2022/09/29 05:31:50;;;;;;;3.30;1.88;;;20.60;55.60;;;;;;5090044;28;20218;-37
2022/09/29 05:34:21;;;;;;;2.33;1.67;;;20.60;55.60;;;;;;5090557;28;20201;-36
2022/09/29 05:36:54;;;;;;;3.50;1.98;;;20.60;55.60;;;;;;5090398;28;20201;-43
2022/09/29 05:39:24;;;;;;;3.20;1.83;;;20.60;55.60;;;;;;5090215;28;20221;-36
2022/09/29 05:41:55;;;;;;;2.47;1.67;;;20.60;55.50;;;;;;5089491;28;20214;-44
2022/09/29 05:44:26;;;;;;;3.50;1.73;;;20.50;55.50;;;;;;5088808;28;20194;-41
2022/09/29 05:46:56;;;;;;;3.22;1.90;;;20.50;55.50;;;;;;5090036;28;20654;-42
2022/09/29 05:49:29;;;;;;;2.92;2.00;;;20.50;55.50;;;;;;5089754;28;20217;-37
2022/09/29 05:52:02;;;;;;;3.50;2.10;;;20.50;55.60;;;;;;5089885;28;20209;-42
2022/09/29 05:54:33;;;;;;;4.35;2.63;;;20.40;55.50;;;;;;5089576;28;20208;-38
2022/09/29 05:57:03;;;;;;;4.30;2.55;;;20.40;55.50;;;;;;5089810;28;20198;-36
2022/09/29 05:59:34;;;;;;;5.05;2.75;;;20.40;55.50;;;;;;5088653;28;20236;-40
2022/09/29 06:02:05;;;;;;;6.25;3.50;;;20.40;55.50;;;;;;5069804;28;20230;-46
2022/09/29 06:04:36;;;;;;;7.50;3.47;;;20.40;55.50;;;;;;5069343;28;20190;-41
2022/09/29 06:07:08;;;;;;;5.20;2.85;;;20.40;55.60;;;;;;5069950;28;20264;-37
2022/09/29 06:09:39;;;;;;;8.98;3.45;;;20.30;55.50;;;;;;5069798;28;20504;-36
2022/09/29 06:12:10;;;;;;;5.20;3.03;;;20.30;55.50;;;;;;5069514;28;20657;-36
2022/09/29 06:14:41;;;;;;;6.00;3.60;;;20.30;55.50;;;;;;5079627;28;20225;-41
2022/09/29 06:17:11;;;;;;;6.60;3.03;;;20.30;55.50;;;;;;5089964;28;20198;-36
2022/09/29 06:19:42;;;;;;;6.20;3.10;;;20.20;55.50;;;;;;5089867;28;20232;-42
2022/09/29 06:22:14;;;;;;;5.40;3.53;;;20.20;55.60;;;;;;5089862;28;20224;-37
2022/09/29 06:24:45;;;;;;;8.25;3.17;;;20.20;55.60;;;;;;5086565;28;20186;-39
2022/09/29 06:27:16;;;;;;;6.80;3.40;;;20.20;55.60;;;;;;5089677;28;20406;-35
2022/09/29 06:29:47;;;;;;;9.05;4.00;;;20.10;55.60;;;;;;5087822;28;20205;-35
2022/09/29 06:32:18;;;;;;;6.70;3.75;;;20.10;56.10;;;;;;5069471;28;20218;-39
2022/09/29 06:37:38;;;;;;;10.10;3.80;;;20.10;55.60;;;;;;5069467;28;20297;-36
2022/09/29 06:40:11;;;;;;;6.47;3.50;;;20.10;55.60;;;;;;5069219;28;20219;-37
2022/09/29 06:42:42;;;;;;;4.95;3.70;;;20.00;55.60;;;;;;5069557;28;20209;-36
2022/09/29 06:45:14;;;;;;;9.55;4.00;;;20.00;55.60;;;;;;5084101;28;20766;-38
2022/09/29 06:47:44;;;;;;;10.50;3.85;;;20.00;55.60;;;;;;5089504;28;20194;-37
2022/09/29 06:50:15;;;;;;;9.32;4.43;;;20.00;55.60;;;;;;5089432;28;20202;-36
2022/09/29 06:52:49;;;;;;;7.10;4.00;;;20.00;55.70;;;;;;5089098;28;20213;-36
2022/09/29 06:55:19;;;;;;;7.60;4.10;;;19.90;55.70;;;;;;5089283;28;20190;-36
2022/09/29 06:57:50;;;;;;;6.72;4.07;;;19.90;55.70;;;;;;5089740;28;20288;-37
2022/09/29 07:00:21;;;;;;;9.30;3.95;;;19.90;55.70;;;;;;5084191;28;20242;-36
2022/09/29 07:02:52;;;;;;;8.85;4.07;;;19.90;55.70;;;;;;5071053;28;20202;-36
2022/09/29 07:05:22;;;;;;;8.25;4.30;;;19.90;55.70;;;;;;5070265;28;20198;-36
2022/09/29 07:07:56;;;;;;;9.20;3.92;;;19.90;55.70;;;;;;5072666;28;20268;-36
2022/09/29 07:10:26;;;;;;;8.82;4.50;;;19.80;55.60;;;;;;5072729;28;20195;-39
2022/09/29 07:12:57;;;;;;;6.72;3.92;;;19.80;55.70;;;;;;5072888;28;20195;-38
2022/09/29 07:15:30;;;;;;;9.13;4.60;;;19.80;55.60;;;;;;5089569;28;20279;-36
2022/09/29 07:18:01;;;;;;;7.95;4.25;;;19.80;55.70;;;;;;5092625;28;20198;-36
2022/09/29 07:20:32;;;;;;;9.48;4.40;;;19.70;55.70;;;;;;5092329;28;20229;-36
2022/09/29 07:23:05;;;;;;;9.15;4.10;;;19.70;56.00;;;;;;5092355;28;20698;-36
2022/09/29 07:25:36;;;;;;;6.65;3.92;;;19.70;55.70;;;;;;5092349;28;20210;-35
2022/09/29 07:28:06;;;;;;;6.32;3.92;;;19.70;55.80;;;;;;5092302;28;20653;-40
2022/09/29 07:30:38;;;;;;;8.10;4.07;;;19.70;56.40;;;;;;5086645;28;20214;-37
2022/09/29 07:33:09;;;;;;;7.63;4.05;;;19.60;55.80;;;;;;5072087;28;20203;-36
2022/09/29 07:35:39;;;;;;;6.63;4.00;;;19.60;55.70;;;;;;5079470;28;20830;-36
2022/09/29 07:38:12;;;;;;;6.82;4.20;;;19.60;55.70;;;;;;5092676;28;20211;-36
2022/09/29 07:40:43;;;;;;;10.38;4.05;;;19.60;55.80;;;;;;5092489;28;20221;-35
2022/09/29 07:43:13;;;;;;;5.10;3.70;;;19.60;55.70;;;;;;5092711;28;20698;-36
2022/09/29 07:45:49;;;;;;;8.43;4.50;;;19.60;55.80;;;;;;5077830;28;20202;-38
2022/09/29 07:48:21;;;;;;;6.20;4.20;;;19.50;55.70;;;;;;5092533;28;20194;-35
2022/09/29 07:50:51;;;;;;;8.95;4.13;;;19.50;55.80;;;;;;5092278;28;20218;-37
2022/09/29 07:53:25;;;;;;;7.95;4.20;;;19.50;55.80;;;;;;5092538;28;20271;-35
2022/09/29 07:55:56;;;;;;;8.60;4.22;;;19.50;55.80;;;;;;5092465;28;20194;-38
2022/09/29 07:58:26;;;;;;;7.47;4.28;;;19.50;55.90;;;;;;5092790;28;20201;-38
2022/09/29 08:00:58;;;;;;;6.32;3.88;;;19.50;55.90;;;;;;5085031;28;20242;-37
2022/09/29 08:03:29;;;;;;;7.00;4.20;;;19.40;55.80;;;;;;5071530;28;20199;-35
2022/09/29 08:06:00;;;;;;;6.50;3.95;;;19.40;55.80;;;;;;5072019;28;20199;-36
2022/09/29 08:08:33;;;;;;;7.47;3.72;;;19.40;55.80;;;;;;5071948;28;20210;-35
2022/09/29 08:11:08;;;;;;;6.68;4.00;;;19.40;55.80;;;;;;5071842;28;20702;-35
2022/09/29 08:13:39;;;;;;;6.70;3.75;;;19.40;55.80;;;;;;5074037;28;20202;-36
2022/09/29 08:16:13;;;;;;;8.52;4.05;;;19.40;55.80;;;;;;5090896;28;20198;-36
2022/09/29 08:18:44;;;;;;;6.93;3.83;;;19.30;56.00;;;;;;5091248;28;20661;-39
2022/09/29 08:21:15;;;;;;;8.00;4.20;;;19.30;56.10;;;;;;5091234;28;20230;-36
2022/09/29 08:23:47;;;;;;;5.75;3.53;;;19.30;56.10;;;;;;5091709;28;20205;-36
2022/09/29 08:26:20;;;;;;;9.02;4.68;;;19.30;56.10;;;;;;5088112;28;20271;-36
2022/09/29 08:28:51;;;;;;;7.68;4.32;;;19.30;56.20;;;;;;5091284;28;20198;-35
2022/09/29 08:31:23;;;;;;;7.30;3.92;;;19.30;56.20;;;;;;5082182;28;20593;-35
2022/09/29 08:33:54;;;;;;;6.32;3.60;;;19.20;56.20;;;;;;5070913;28;20199;-35
2022/09/29 08:36:25;;;;;;;7.82;4.53;;;19.20;56.10;;;;;;5071018;28;20199;-34
2022/09/29 08:38:59;;;;;;;6.30;3.90;;;19.20;56.10;;;;;;5071425;28;20205;-35
2022/09/29 08:41:42;;;;;;;8.45;4.25;;;19.20;56.10;;;;;;5070956;28;20276;-35
2022/09/29 08:44:18;;;;;;;6.97;3.88;;;19.20;56.10;;;;;;5078579;28;20198;-36
2022/09/29 08:46:53;;;;;;;6.22;3.65;;;19.20;56.10;;;;;;5090770;28;20201;-35
2022/09/29 08:49:27;;;;;;;5.30;3.40;;;19.20;56.10;;;;;;5091047;28;20212;-35
2022/09/29 08:52:03;;;;;;;5.53;3.63;;;19.10;56.10;;;;;;5091188;28;20729;-35
2022/09/29 08:54:39;;;;;;;7.43;3.75;;;19.10;56.10;;;;;;5091020;28;20194;-35
2022/09/29 08:57:16;;;;;;;6.93;3.85;;;19.10;56.20;;;;;;5090834;28;20208;-35
2022/09/29 08:59:48;;;;;;;7.03;4.35;;;19.10;56.20;;;;;;5091047;28;20221;-35
2022/09/29 09:02:41;;;;;;;6.63;4.13;;;19.10;56.20;;;;;;5075686;28;20219;-37
2022/09/29 09:05:41;;;;;;;7.30;3.80;;;19.00;56.20;;;;;;5070608;28;20198;-35
2022/09/29 09:08:21;;;;;;;7.47;4.18;;;19.00;56.10;;;;;;5066787;28;20195;-37
2022/09/29 09:11:03;;;;;;;5.72;3.47;;;19.00;56.10;;;;;;5072589;28;20207;-36
2022/09/29 09:13:47;;;;;;;6.90;3.78;;;19.00;56.10;;;;;;5072100;28;20628;-36
2022/09/29 09:16:28;;;;;;;6.40;3.80;;;19.00;56.10;;;;;;5080322;28;20195;-35
2022/09/29 09:19:11;;;;;;;7.13;3.95;;;19.00;56.10;;;;;;5087362;28;20193;-38
2022/09/29 09:21:45;;;;;;;7.15;3.70;;;18.90;56.10;;;;;;5090380;28;20234;-35
2022/09/29 09:24:23;;;;;;;7.88;3.67;;;18.90;56.10;;;;;;5080722;28;20202;-35
2022/09/29 09:26:57;;;;;;;5.10;3.08;;;18.90;56.20;;;;;;5090183;28;20645;-35
2022/09/29 09:29:33;;;;;;;5.47;3.33;;;18.90;56.20;;;;;;5087694;28;20187;-38
2022/09/29 09:32:09;;;;;;;4.80;3.50;;;18.90;56.20;;;;;;5070990;28;20214;-35
2022/09/29 09:34:44;;;;;;;5.70;3.65;;;18.80;56.20;;;;;;5100286;28;20557;-39
2022/09/29 09:37:19;;;;;;;5.13;3.72;;;18.80;56.20;;;;;;5111734;28;20196;-39
2022/09/29 09:39:57;;;;;;;6.40;3.75;;;18.90;56.20;;;;;;5110687;28;20209;-43
2022/09/29 09:42:33;;;;;;;6.65;3.65;;;18.80;56.20;;;;;;5100747;28;20214;-36
2022/09/29 09:45:09;;;;;;;5.30;3.40;;;18.80;56.10;;;;;;5076462;28;20769;-35
2022/09/29 09:47:44;;;;;;;5.72;3.30;;;18.80;56.10;;;;;;5071203;28;20198;-44
2022/09/29 09:50:18;;;;;;;4.88;3.10;;;18.80;56.10;;;;;;5089041;28;20236;-35
2022/09/29 09:52:53;;;;;;;4.78;3.22;;;18.70;56.10;;;;;;5079488;28;20220;-38
2022/09/29 09:55:24;;;;;;;5.38;3.80;;;18.70;56.10;;;;;;5091323;28;20646;-35
2022/09/29 09:58:25;;;;;;;4.43;2.90;;;18.70;56.20;;;;;;5091810;28;20251;-35
2022/09/29 10:00:59;;;;;;;3.80;2.70;;;18.70;56.20;;;;;;5082898;28;20704;-35
2022/09/29 10:03:31;;;;;;;5.38;3.40;;;18.70;56.20;;;;;;5074052;28;20182;-36
2022/09/29 10:06:02;;;;;;;4.82;3.17;;;18.70;56.30;;;;;;5090662;28;20198;-36
2022/09/29 10:08:37;;;;;;;4.72;3.03;;;18.70;56.20;;;;;;5090371;28;20199;-39
2022/09/29 10:11:25;;;;;;;4.32;2.90;;;18.70;56.20;;;;;;5090658;28;20213;-37
2022/09/29 10:14:02;;;;;;;5.07;3.08;;;18.70;56.20;;;;;;5086554;28;20195;-39
2022/09/29 10:16:41;;;;;;;4.70;3.00;;;18.70;56.20;;;;;;5070547;28;20803;-36
2022/09/29 10:19:12;;;;;;;5.10;3.20;;;18.60;56.40;;;;;;5082185;28;20194;-35
2022/09/29 10:21:43;;;;;;;6.07;3.00;;;18.70;57.00;;;;;;5090516;28;20237;-38
2022/09/29 10:24:29;;;;;;;5.90;3.22;;;18.60;57.00;;;;;;5088548;28;20190;-35
2022/09/29 10:27:03;;;;;;;5.22;2.88;;;18.60;56.80;;;;;;5070878;28;20202;-35
2022/09/29 10:29:40;;;;;;;5.13;3.45;;;18.60;56.70;;;;;;5080920;28;20243;-36
2022/09/29 10:32:15;;;;;;;5.68;3.03;;;18.60;56.70;;;;;;5090903;28;20217;-40
2022/09/29 10:34:48;;;;;;;4.85;3.10;;;18.60;56.70;;;;;;5090033;28;20191;-35
2022/09/29 10:37:24;;;;;;;5.20;3.25;;;18.60;56.60;;;;;;5090822;28;20206;-35
2022/09/29 10:40:06;;;;;;;5.47;3.45;;;18.60;56.60;;;;;;5091530;28;20595;-37
2022/09/29 10:42:39;;;;;;;5.43;3.08;;;18.60;56.60;;;;;;5094407;28;20232;-36
2022/09/29 10:45:18;;;;;;;5.97;2.95;;;18.60;56.50;;;;;;5079059;28;20194;-35
2022/09/29 10:47:50;;;;;;;5.07;3.00;;;18.50;56.50;;;;;;5074411;28;20197;-35
2022/09/29 10:50:22;;;;;;;4.72;2.80;;;18.60;56.60;;;;;;5089846;28;20206;-36
2022/09/29 10:52:56;;;;;;;5.18;3.13;;;18.50;56.60;;;;;;5094239;28;20201;-36
2022/09/29 10:55:29;;;;;;;4.60;2.92;;;18.50;56.50;;;;;;5093982;28;20555;-35
2022/09/29 10:58:05;;;;;;;5.00;3.08;;;18.50;56.60;;;;;;5094311;28;20194;-38
2022/09/29 11:00:39;;;;;;;4.28;2.42;;;18.50;56.60;;;;;;5094125;28;20221;-36
2022/09/29 11:03:18;;;;;;;4.72;2.70;;;18.40;56.50;;;;;;5093921;28;20200;-36
2022/09/29 11:05:55;;;;;;;4.13;2.60;;;18.40;56.50;;;;;;5094420;28;20580;-35
2022/09/29 11:08:26;;;;;;;4.57;2.92;;;18.40;57.10;;;;;;5085660;28;20273;-39
2022/09/29 11:11:08;;;;;;;4.85;2.55;;;18.40;56.50;;;;;;5073375;28;20219;-37
2022/09/29 11:13:41;;;;;;;3.97;2.60;;;18.40;56.50;;;;;;5073882;28;20190;-43
2022/09/29 11:16:19;;;;;;;5.82;3.00;;;18.40;56.40;;;;;;5093871;28;20197;-36
2022/09/29 11:18:52;;;;;;;4.35;2.55;;;18.40;56.50;;;;;;5092796;28;20198;-35
2022/09/29 11:21:55;;;;;;;3.97;2.83;;;18.40;56.50;;;;;;5093404;28;20230;-35
2022/09/29 11:24:53;;;;;;;4.60;3.03;;;18.30;56.40;;;;;;5093627;28;20196;-36
2022/09/29 11:27:39;;;;;;;4.30;2.63;;;18.30;56.40;;;;;;5077820;28;20194;-36
2022/09/29 11:30:12;;;;;;;5.38;2.92;;;18.30;57.00;;;;;;5085934;28;20193;-35
2022/09/29 11:33:04;;;;;;;4.65;2.67;;;18.30;56.50;;;;;;5093418;28;20247;-36
2022/09/29 11:35:44;;;;;;;3.83;2.47;;;18.30;56.50;;;;;;5088557;28;20190;-40
2022/09/29 11:38:32;;;;;;;4.13;2.40;;;18.30;56.40;;;;;;5093087;28;20201;-36
2022/09/29 11:41:14;;;;;;;3.70;2.47;;;18.30;56.40;;;;;;5093118;28;20230;-35
2022/09/29 11:43:52;;;;;;;3.42;2.47;;;18.30;57.00;;;;;;5090518;28;20577;-36
2022/09/29 11:46:38;;;;;;;3.47;2.60;;;18.30;56.40;;;;;;5082084;28;20214;-35
2022/09/29 11:49:36;;;;;;;3.03;2.53;;;18.20;56.40;;;;;;5075982;28;20194;-35
2022/09/29 11:52:24;;;;;;;2.97;2.22;;;18.20;56.40;;;;;;5092213;28;20301;-43
2022/09/29 11:55:08;;;;;;;3.90;2.40;;;18.20;56.40;;;;;;5092981;28;20201;-37
2022/09/29 11:57:55;;;;;;;3.03;2.10;;;18.20;56.40;;;;;;5093088;28;20194;-38
2022/09/29 12:00:44;;;;;;;3.95;2.35;;;18.10;56.40;;;;;;5093763;28;20197;-35
2022/09/29 12:03:24;;;;;;;3.92;2.50;;;18.20;56.50;;;;;;5093008;28;20251;-35
2022/09/29 12:06:15;;;;;;;2.88;2.13;;;18.20;56.50;;;;;;5092262;28;20586;-35
2022/09/29 12:09:03;;;;;;;4.28;2.50;;;18.10;56.40;;;;;;5093002;28;20227;-35
2022/09/29 12:11:45;;;;;;;3.10;2.30;;;18.10;56.40;;;;;;5092652;28;20217;-36
2022/09/29 12:14:19;;;;;;;2.80;2.25;;;18.20;56.40;;;;;;5088236;28;20202;-47
2022/09/29 12:16:56;;;;;;;2.58;1.90;;;18.10;56.30;;;;;;5092833;28;20194;-41
2022/09/29 12:19:29;;;;;;;4.05;2.28;;;18.10;56.40;;;;;;5086029;28;20188;-37
2022/09/29 12:22:05;;;;;;;4.57;2.10;;;18.10;56.40;;;;;;5092235;28;20272;-41
2022/09/29 12:24:39;;;;;;;2.58;2.28;;;18.10;56.40;;;;;;5077245;28;20190;-39
2022/09/29 12:27:14;;;;;;;2.70;2.20;;;18.10;56.50;;;;;;5092224;28;20581;-38
2022/09/29 12:29:49;;;;;;;2.72;2.28;;;18.10;56.50;;;;;;5093096;28;20646;-39
2022/09/29 12:32:24;;;;;;;2.67;2.20;;;18.00;56.40;;;;;;5091807;28;20221;-43
2022/09/29 12:34:57;;;;;;;2.63;2.10;;;18.00;56.40;;;;;;5092148;28;20190;-35
2022/09/29 12:37:35;;;;;;;4.13;2.28;;;18.00;56.40;;;;;;5092595;28;20194;-40
2022/09/29 12:40:12;;;;;;;3.45;2.20;;;18.00;56.40;;;;;;5092660;28;20646;-35
2022/09/29 12:43:03;;;;;;;3.63;2.28;;;18.00;56.30;;;;;;5091920;28;20225;-35
2022/09/29 12:45:40;;;;;;;3.25;2.25;;;18.00;56.30;;;;;;5086293;28;20556;-35
2022/09/29 12:48:27;;;;;;;2.35;2.00;;;18.00;56.30;;;;;;5092060;28;20197;-35
2022/09/29 12:51:10;;;;;;;2.58;2.05;;;18.00;56.30;;;;;;5092204;28;20241;-39
2022/09/29 12:53:51;;;;;;;2.80;1.95;;;18.00;56.40;;;;;;5091077;28;20270;-35
2022/09/29 12:56:28;;;;;;;2.22;1.80;;;17.90;56.40;;;;;;5091990;28;20247;-36
2022/09/29 12:59:07;;;;;;;3.70;2.05;;;17.90;56.40;;;;;;5092423;28;20229;-44
2022/09/29 13:01:39;;;;;;;2.83;1.90;;;17.90;56.40;;;;;;5091579;28;20217;-37
2022/09/29 13:04:49;;;;;;;3.10;2.00;;;17.90;56.40;;;;;;5091123;28;20829;-35
2022/09/29 13:07:48;;;;;;;2.03;1.83;;;17.90;56.40;;;;;;5084207;28;20191;-39
2022/09/29 13:10:53;;;;;;;3.63;2.20;;;17.90;56.30;;;;;;5079419;28;20190;-36
2022/09/29 13:13:47;;;;;;;2.80;2.17;;;17.90;56.30;;;;;;5091888;28;20194;-35
2022/09/29 13:16:34;;;;;;;2.85;1.98;;;17.90;56.40;;;;;;5087597;28;20215;-35
2022/09/29 13:19:51;;;;;;;4.63;2.30;;;17.90;56.40;;;;;;5080853;28;20190;-35
2022/09/29 13:22:39;;;;;;;4.30;2.50;;;17.80;56.40;;;;;;5070837;28;20697;-35
2022/09/29 13:25:18;;;;;;;2.13;1.85;;;17.80;56.40;;;;;;5071589;28;20199;-35
2022/09/29 13:27:53;;;;;;;2.33;1.80;;;17.80;56.40;;;;;;5071741;28;20199;-36
2022/09/29 13:30:26;;;;;;;2.40;1.92;;;17.80;56.40;;;;;;5074298;28;20221;-35